Blountstown, Florida
Current Conditions -  °F | °C
As of 3:53 PM on Thursday 18 Dec 2014 (Local Time) from KMAI Reporting Station
Clear Clear  
Wind Chill: 63°   Ceiling: Unl
Heat Index: 63°   Visibility: 10mi
Dew Point: 35°   Wind: 3mph
Humidity: 35%   Direction: 250°WSW
Pressure: 30.1"   Gusts: NA
Location:  30.44°N, 85.05°W
Report Text: KMAI 182153Z AUTO 25003KT 10SM CLR 17/02 A3010 RMK AO2 SLP194 T01720017 $
Loading
Personal Weather Stations






























Interactive Weather Map New forecast layout! Learn more

10-Day Weather Forecast

Advertisements
Track Severe Weather on mobile